createdAt,value
2018-08-19T00:01:10.897Z,25.72
2018-08-19T00:03:39.201Z,25.71
2018-08-19T00:06:08.195Z,25.71
2018-08-19T00:08:36.603Z,25.71
2018-08-19T00:11:07.650Z,25.70
2018-08-19T00:13:36.866Z,25.69
2018-08-19T00:16:05.462Z,25.69
2018-08-19T00:18:35.538Z,25.68
2018-08-19T00:21:05.991Z,25.68
2018-08-19T00:23:39.466Z,25.67
2018-08-19T00:26:07.804Z,25.65
2018-08-19T00:28:36.126Z,25.64
2018-08-19T00:31:05.834Z,25.64
2018-08-19T00:33:34.473Z,25.64
2018-08-19T00:36:08.347Z,25.64
2018-08-19T00:38:36.726Z,25.62
2018-08-19T00:41:05.094Z,25.61
2018-08-19T00:43:33.385Z,25.60
2018-08-19T00:46:11.653Z,25.61
2018-08-19T00:48:39.966Z,25.60
2018-08-19T00:51:08.334Z,25.59
2018-08-19T00:53:36.754Z,25.57
2018-08-19T00:56:05.063Z,25.57
2018-08-19T00:58:33.385Z,25.58
2018-08-19T01:01:01.775Z,25.58
2018-08-19T01:03:35.398Z,25.57
2018-08-19T01:06:03.754Z,25.56
2018-08-19T01:08:32.094Z,25.50
2018-08-19T01:11:00.495Z,25.56
2018-08-19T01:13:28.869Z,25.53
2018-08-19T01:15:57.258Z,25.53
2018-08-19T01:18:25.557Z,25.53
2018-08-19T01:21:04.270Z,25.51
2018-08-19T01:23:32.579Z,25.52
2018-08-19T01:26:00.899Z,25.50
2018-08-19T01:28:29.266Z,25.50
2018-08-19T01:30:57.587Z,25.49
2018-08-19T01:33:26.059Z,25.49
2018-08-19T01:35:54.364Z,25.47
2018-08-19T01:38:22.677Z,25.47
2018-08-19T01:40:51.038Z,25.46
2018-08-19T01:43:19.370Z,25.46
2018-08-19T01:45:47.683Z,25.45
2018-08-19T01:48:15.998Z,25.45
2018-08-19T01:50:44.286Z,25.44
2018-08-19T01:53:19.114Z,25.44
2018-08-19T01:55:47.393Z,25.43
2018-08-19T01:58:22.166Z,25.42
2018-08-19T02:00:50.432Z,25.42
2018-08-19T02:03:18.705Z,25.41
2018-08-19T02:05:46.958Z,25.40
2018-08-19T02:08:15.256Z,25.40
2018-08-19T02:10:43.513Z,25.39
2018-08-19T02:13:11.808Z,25.39
2018-08-19T02:15:40.045Z,25.37
2018-08-19T02:18:08.367Z,25.35
2018-08-19T02:20:39.358Z,25.35
2018-08-19T02:23:09.982Z,25.35
2018-08-19T02:25:41.275Z,25.35
2018-08-19T02:28:10.213Z,25.35
2018-08-19T02:30:51.576Z,25.35
2018-08-19T02:33:20.290Z,25.33
2018-08-19T02:35:53.926Z,25.32
2018-08-19T02:38:22.276Z,25.32
2018-08-19T02:40:52.177Z,25.32
2018-08-19T02:43:21.230Z,25.31
2018-08-19T02:45:49.522Z,25.29
2018-08-19T02:48:17.898Z,25.28
2018-08-19T02:50:46.241Z,25.29
2018-08-19T02:53:14.526Z,25.28
2018-08-19T02:55:42.834Z,25.27
2018-08-19T02:58:16.686Z,25.26
2018-08-19T03:00:44.985Z,25.27
2018-08-19T03:03:13.358Z,25.25
2018-08-19T03:05:45.831Z,25.25
2018-08-19T03:08:14.159Z,25.24
2018-08-19T03:10:42.458Z,25.24
2018-08-19T03:13:10.762Z,25.23
2018-08-19T03:15:39.075Z,25.21
2018-08-19T03:18:07.423Z,25.20
2018-08-19T03:20:35.742Z,25.20
2018-08-19T03:23:04.126Z,25.20
2018-08-19T03:25:32.418Z,25.19
2018-08-19T03:28:00.718Z,25.19
2018-08-19T03:30:29.035Z,25.18
2018-08-19T03:33:00.350Z,25.17
2018-08-19T03:35:28.686Z,25.15
2018-08-19T03:38:00.588Z,25.16
2018-08-19T03:40:29.098Z,25.16
2018-08-19T03:42:57.502Z,25.14
2018-08-19T03:45:25.880Z,25.13
2018-08-19T03:47:54.138Z,25.13
2018-08-19T03:50:24.443Z,25.12
2018-08-19T03:52:53.278Z,25.12
2018-08-19T03:55:27.725Z,25.13
2018-08-19T03:57:59.424Z,25.11
2018-08-19T04:00:28.926Z,25.09
2018-08-19T04:02:57.247Z,25.09
2018-08-19T04:05:42.166Z,25.08
2018-08-19T04:08:11.648Z,25.08
2018-08-19T04:10:41.335Z,25.07
2018-08-19T04:13:41.178Z,25.06
2018-08-19T04:16:10.754Z,25.05
2018-08-19T04:18:45.558Z,25.03
2018-08-19T04:21:16.116Z,25.03
2018-08-19T04:23:49.246Z,25.02
2018-08-19T04:26:17.510Z,25.01
2018-08-19T04:28:46.467Z,25.01
2018-08-19T04:31:20.024Z,25.01
2018-08-19T04:33:49.049Z,25.00
2018-08-19T04:36:18.537Z,24.99
2018-08-19T04:38:46.771Z,24.98
2018-08-19T04:41:15.330Z,24.98
2018-08-19T04:43:44.102Z,24.97
2018-08-19T04:46:12.427Z,24.96
2018-08-19T04:48:40.750Z,24.96
2018-08-19T04:51:09.100Z,24.96
2018-08-19T04:53:37.355Z,24.96
2018-08-19T04:56:05.679Z,24.94
2018-08-19T04:58:33.931Z,24.95
2018-08-19T05:01:02.186Z,24.95
2018-08-19T05:03:30.543Z,24.94
2018-08-19T05:05:59.722Z,24.94
2018-08-19T05:08:28.099Z,24.94
2018-08-19T05:10:56.276Z,24.95
2018-08-19T05:13:24.600Z,24.95
2018-08-19T05:15:52.866Z,24.95
2018-08-19T05:18:21.158Z,24.96
2018-08-19T05:20:49.488Z,24.96
2018-08-19T05:23:17.750Z,24.95
2018-08-19T05:25:56.409Z,24.95
2018-08-19T05:28:24.739Z,24.95
2018-08-19T05:30:52.958Z,24.96
2018-08-19T05:33:21.219Z,24.94
2018-08-19T05:35:49.478Z,24.95
2018-08-19T05:38:17.747Z,24.95
2018-08-19T05:40:53.018Z,24.96
2018-08-19T05:43:21.906Z,24.96
2018-08-19T05:45:57.214Z,24.96
2018-08-19T05:48:25.807Z,24.96
2018-08-19T05:50:54.420Z,24.96
2018-08-19T05:53:23.018Z,24.97
2018-08-19T05:55:51.616Z,24.97
2018-08-19T05:58:20.278Z,24.98
2018-08-19T06:01:02.803Z,24.97
2018-08-19T06:03:31.178Z,24.98
2018-08-19T06:05:59.694Z,24.99
2018-08-19T06:08:28.126Z,25.00
2018-08-19T06:10:56.459Z,25.00
2018-08-19T06:13:27.334Z,25.01
2018-08-19T06:15:55.675Z,25.01
2018-08-19T06:18:23.942Z,25.03
2018-08-19T06:20:52.286Z,25.05
2018-08-19T06:23:22.022Z,25.06
2018-08-19T06:25:50.374Z,25.06
2018-08-19T06:28:18.677Z,25.08
2018-08-19T06:30:47.052Z,25.08
2018-08-19T06:33:15.466Z,25.10
2018-08-19T06:35:43.829Z,25.11
2018-08-19T06:38:12.227Z,25.13
2018-08-19T06:40:40.554Z,25.13
2018-08-19T06:43:09.032Z,25.12
2018-08-19T06:45:37.243Z,25.12
2018-08-19T06:48:05.576Z,25.13
2018-08-19T06:50:35.163Z,25.15
2018-08-19T06:53:03.525Z,25.17
2018-08-19T06:55:32.467Z,25.18
2018-08-19T06:58:01.086Z,25.20
2018-08-19T07:00:30.402Z,25.22
2018-08-19T07:03:05.134Z,25.24
2018-08-19T07:05:34.198Z,25.25
2018-08-19T07:08:03.331Z,25.27
2018-08-19T07:10:40.982Z,25.28
2018-08-19T07:13:14.440Z,25.32
2018-08-19T07:15:43.846Z,25.33
2018-08-19T07:18:13.995Z,25.34
2018-08-19T07:20:42.992Z,25.36
2018-08-19T07:23:11.882Z,25.37
2018-08-19T07:25:42.118Z,25.39
2018-08-19T07:28:11.370Z,25.40
2018-08-19T07:30:40.119Z,25.42
2018-08-19T07:33:08.619Z,25.43
2018-08-19T07:35:36.927Z,25.45
2018-08-19T07:38:05.282Z,25.46
2018-08-19T07:40:34.582Z,25.47
2018-08-19T07:43:02.894Z,25.49
2018-08-19T07:45:31.286Z,25.51
2018-08-19T07:47:59.618Z,25.53
2018-08-19T07:50:27.966Z,25.55
2018-08-19T07:52:56.383Z,25.57
2018-08-19T07:55:24.896Z,25.58
2018-08-19T07:57:53.247Z,25.60
2018-08-19T08:00:27.817Z,25.62
2018-08-19T08:02:56.238Z,25.65
2018-08-19T08:05:25.634Z,25.65
2018-08-19T08:07:53.998Z,25.68
2018-08-19T08:10:22.362Z,25.70
2018-08-19T08:12:54.991Z,25.71
2018-08-19T08:15:23.468Z,25.73
2018-08-19T08:17:51.847Z,25.75
2018-08-19T08:20:20.155Z,25.78
2018-08-19T08:22:48.546Z,25.80
2018-08-19T08:25:16.982Z,25.79
2018-08-19T08:27:45.286Z,25.81
2018-08-19T08:30:13.658Z,25.83
2018-08-19T08:32:45.659Z,25.86
2018-08-19T08:35:14.033Z,25.89
2018-08-19T08:37:42.670Z,25.91
2018-08-19T08:40:11.726Z,25.93
2018-08-19T08:42:42.907Z,25.92
2018-08-19T08:45:17.386Z,25.95
2018-08-19T08:47:45.840Z,25.98
2018-08-19T08:50:14.063Z,26.00
2018-08-19T08:52:43.982Z,26.02
2018-08-19T08:55:13.091Z,26.05
2018-08-19T08:57:41.449Z,26.06
2018-08-19T09:00:11.194Z,26.09
2018-08-19T09:02:39.902Z,26.10
2018-08-19T09:05:10.425Z,26.11
2018-08-19T09:07:39.400Z,26.13
2018-08-19T09:10:07.726Z,26.12
2018-08-19T09:12:51.822Z,26.14
2018-08-19T09:15:20.329Z,26.15
2018-08-19T09:17:48.678Z,26.16
2018-08-19T09:20:17.143Z,26.18
2018-08-19T09:22:46.334Z,26.20
2018-08-19T09:25:14.614Z,26.21
2018-08-19T09:27:43.469Z,26.23
2018-08-19T09:30:18.684Z,26.25
2018-08-19T09:32:59.061Z,26.27
2018-08-19T09:35:30.366Z,26.27
2018-08-19T09:38:03.041Z,26.28
2018-08-19T09:40:32.181Z,26.29
2018-08-19T09:43:00.692Z,26.30
2018-08-19T09:45:29.074Z,26.31
2018-08-19T09:47:57.511Z,26.32
2018-08-19T09:50:25.759Z,26.35
2018-08-19T09:52:54.171Z,26.36
2018-08-19T09:55:27.174Z,26.36
2018-08-19T09:57:56.041Z,26.38
2018-08-19T10:00:25.182Z,26.40
2018-08-19T10:02:53.498Z,26.40
2018-08-19T10:05:24.525Z,26.42
2018-08-19T10:07:54.635Z,26.44
2018-08-19T10:10:23.798Z,26.45
2018-08-19T10:12:52.284Z,26.47
2018-08-19T10:15:20.614Z,26.48
2018-08-19T10:17:48.999Z,26.51
2018-08-19T10:20:17.341Z,26.52
2018-08-19T10:22:45.962Z,26.53
2018-08-19T10:25:16.562Z,26.55
2018-08-19T10:27:47.141Z,26.55
2018-08-19T10:30:18.441Z,26.59
2018-08-19T10:33:01.318Z,26.60
2018-08-19T10:35:30.422Z,26.61
2018-08-19T10:37:59.442Z,26.62
2018-08-19T10:40:27.793Z,26.65
2018-08-19T10:43:01.971Z,26.66
2018-08-19T10:45:30.286Z,26.67
2018-08-19T10:47:58.687Z,26.67
2018-08-19T10:50:28.666Z,26.69
2018-08-19T10:52:57.078Z,26.71
2018-08-19T10:55:26.554Z,26.72
2018-08-19T10:57:55.717Z,26.72
2018-08-19T11:00:28.074Z,26.74
2018-08-19T11:03:11.521Z,26.75
2018-08-19T11:05:41.242Z,26.77
2018-08-19T11:08:10.334Z,26.78
2018-08-19T11:10:38.622Z,26.79
2018-08-19T11:13:07.202Z,26.82
2018-08-19T11:15:41.243Z,26.82
2018-08-19T11:18:22.530Z,26.83
2018-08-19T11:20:52.966Z,26.85
2018-08-19T11:23:24.258Z,26.87
2018-08-19T11:25:53.590Z,26.89
2018-08-19T11:28:57.531Z,26.89
2018-08-19T11:31:31.281Z,26.91
2018-08-19T11:34:04.680Z,26.92
2018-08-19T11:36:38.339Z,26.93
2018-08-19T11:39:08.362Z,26.93
2018-08-19T11:41:36.721Z,26.96
2018-08-19T11:44:08.263Z,26.97
2018-08-19T11:46:36.722Z,26.97
2018-08-19T11:49:09.171Z,26.99
2018-08-19T11:51:50.792Z,27.00
2018-08-19T11:54:20.003Z,27.01
2018-08-19T11:56:54.631Z,27.02
2018-08-19T11:59:25.015Z,27.03
2018-08-19T12:01:53.346Z,27.05
2018-08-19T12:04:21.843Z,27.06
2018-08-19T12:06:50.140Z,27.07
2018-08-19T12:09:18.423Z,27.08
2018-08-19T12:11:46.826Z,27.08
2018-08-19T12:14:15.619Z,27.09
2018-08-19T12:16:50.212Z,27.10
2018-08-19T12:19:19.901Z,27.12
2018-08-19T12:21:51.212Z,27.12
2018-08-19T12:24:35.494Z,27.13
2018-08-19T12:27:04.962Z,27.15
2018-08-19T12:29:34.494Z,27.16
2018-08-19T12:32:15.276Z,27.17
2018-08-19T12:34:46.318Z,27.18
2018-08-19T12:37:15.703Z,27.19
2018-08-19T12:39:44.022Z,27.19
2018-08-19T12:42:27.456Z,27.20
2018-08-19T12:44:59.627Z,27.20
2018-08-19T12:47:28.377Z,27.22
2018-08-19T12:49:57.954Z,27.23
2018-08-19T12:52:29.502Z,27.23
2018-08-19T12:55:01.812Z,27.24
2018-08-19T12:57:30.146Z,27.25
2018-08-19T13:00:33.654Z,27.24
2018-08-19T13:03:02.302Z,27.24
2018-08-19T13:05:30.597Z,27.25
2018-08-19T13:07:58.946Z,27.27
2018-08-19T13:10:35.286Z,27.27
2018-08-19T13:13:03.736Z,27.27
2018-08-19T13:15:32.023Z,27.28
2018-08-19T13:21:04.630Z,27.29
2018-08-19T13:23:33.174Z,27.30
2018-08-19T13:26:01.536Z,27.30
2018-08-19T13:28:29.908Z,27.30
2018-08-19T13:30:58.267Z,27.31
2018-08-19T13:33:26.791Z,27.32
2018-08-19T13:35:55.442Z,27.32
2018-08-19T13:38:34.359Z,27.32
2018-08-19T13:41:33.360Z,27.31
2018-08-19T13:44:02.249Z,27.32
2018-08-19T13:46:30.658Z,27.32
2018-08-19T13:48:59.045Z,27.32
2018-08-19T13:51:27.403Z,27.34
2018-08-19T13:53:55.690Z,27.34
2018-08-19T13:56:24.043Z,27.33
2018-08-19T13:58:52.359Z,27.36
2018-08-19T14:01:20.707Z,27.35
2018-08-19T14:03:48.971Z,27.35
2018-08-19T14:06:18.353Z,27.35
2018-08-19T14:08:46.789Z,27.36
2018-08-19T14:11:15.126Z,27.36
2018-08-19T14:13:43.508Z,27.37
2018-08-19T14:16:11.770Z,27.37
2018-08-19T14:18:40.038Z,27.37
2018-08-19T14:21:08.340Z,27.37
2018-08-19T14:23:36.642Z,27.37
2018-08-19T14:26:04.962Z,27.38
2018-08-19T14:28:33.250Z,27.37
2018-08-19T14:31:01.571Z,27.38
2018-08-19T14:33:29.855Z,27.38
2018-08-19T14:35:59.047Z,27.39
2018-08-19T14:38:27.354Z,27.38
2018-08-19T14:40:55.674Z,27.37
2018-08-19T14:43:24.102Z,27.39
2018-08-19T14:45:52.399Z,27.38
2018-08-19T14:48:20.683Z,27.37
2018-08-19T14:50:49.007Z,27.38
2018-08-19T14:53:17.318Z,27.38
2018-08-19T14:55:45.695Z,27.36
2018-08-19T14:58:13.999Z,27.37
2018-08-19T15:00:42.338Z,27.36
2018-08-19T15:03:10.659Z,27.36
2018-08-19T15:05:39.008Z,27.35
2018-08-19T15:08:12.530Z,27.35
2018-08-19T15:10:41.342Z,27.35
2018-08-19T15:16:08.672Z,27.31
2018-08-19T15:18:37.095Z,27.35
2018-08-19T15:21:05.439Z,27.36
2018-08-19T15:23:33.865Z,27.35
2018-08-19T15:26:02.227Z,27.34
2018-08-19T15:28:30.674Z,27.36
2018-08-19T15:30:59.074Z,27.35
2018-08-19T15:33:27.532Z,27.36
2018-08-19T15:35:55.862Z,27.37
2018-08-19T15:38:24.255Z,27.36
2018-08-19T15:41:06.898Z,27.37
2018-08-19T15:43:35.387Z,27.38
2018-08-19T15:46:03.850Z,27.38
2018-08-19T15:48:32.338Z,27.39
2018-08-19T15:51:04.767Z,27.38
2018-08-19T15:53:33.178Z,27.39
2018-08-19T15:56:01.566Z,27.40
2018-08-19T15:58:30.118Z,27.40
2018-08-19T16:00:58.588Z,27.40
2018-08-19T16:03:27.146Z,27.41
2018-08-19T16:05:55.532Z,27.40
2018-08-19T16:08:23.887Z,27.40
2018-08-19T16:10:52.291Z,27.41
2018-08-19T16:13:27.115Z,27.42
2018-08-19T16:15:55.449Z,27.41
2018-08-19T16:18:23.755Z,27.42
2018-08-19T16:21:06.135Z,27.41
2018-08-19T16:23:34.404Z,27.41
2018-08-19T16:26:02.699Z,27.41
2018-08-19T16:28:31.011Z,27.42
2018-08-19T16:30:59.299Z,27.42
2018-08-19T16:33:27.688Z,27.42
2018-08-19T16:35:56.055Z,27.41
2018-08-19T16:38:24.333Z,27.41
2018-08-19T16:40:52.602Z,27.40
2018-08-19T16:43:20.866Z,27.40
2018-08-19T16:45:49.394Z,27.40
2018-08-19T16:48:17.678Z,27.40
2018-08-19T16:50:46.267Z,27.38
2018-08-19T16:53:14.473Z,27.37
2018-08-19T16:55:42.820Z,27.39
2018-08-19T16:58:11.128Z,27.38
2018-08-19T17:00:39.403Z,27.39
2018-08-19T17:03:23.864Z,27.39
2018-08-19T17:05:52.239Z,27.38
2018-08-19T17:08:20.544Z,27.38
2018-08-19T17:10:48.890Z,27.37
2018-08-19T17:13:17.245Z,27.37
2018-08-19T17:15:45.543Z,27.37
2018-08-19T17:18:13.828Z,27.35
2018-08-19T17:20:42.452Z,27.35
2018-08-19T17:23:10.822Z,27.35
2018-08-19T17:25:39.211Z,27.34
2018-08-19T17:28:15.722Z,27.35
2018-08-19T17:30:44.014Z,27.34
2018-08-19T17:33:12.322Z,27.34
2018-08-19T17:35:42.892Z,27.34
2018-08-19T17:38:11.207Z,27.32
2018-08-19T17:40:40.102Z,27.33
2018-08-19T17:43:10.070Z,27.33
2018-08-19T17:45:39.513Z,27.34
2018-08-19T17:48:08.769Z,27.34
2018-08-19T17:50:38.315Z,27.35
2018-08-19T17:53:07.290Z,27.34
2018-08-19T17:55:35.682Z,27.33
2018-08-19T17:58:04.103Z,27.33
2018-08-19T18:00:32.435Z,27.34
2018-08-19T18:03:00.722Z,27.34
2018-08-19T18:05:29.072Z,27.33
2018-08-19T18:07:57.436Z,27.32
2018-08-19T18:10:25.738Z,27.32
2018-08-19T18:12:54.046Z,27.30
2018-08-19T18:15:22.406Z,27.30
2018-08-19T18:17:57.122Z,27.30
2018-08-19T18:20:28.321Z,27.29
2018-08-19T18:22:57.491Z,27.26
2018-08-19T18:25:26.135Z,27.25
2018-08-19T18:27:54.582Z,27.21
2018-08-19T18:30:24.798Z,27.21
2018-08-19T18:32:53.178Z,27.18
2018-08-19T18:35:22.670Z,27.17
2018-08-19T18:37:51.075Z,27.16
2018-08-19T18:40:24.619Z,27.16
2018-08-19T18:42:53.240Z,27.15
2018-08-19T18:45:21.606Z,27.15
2018-08-19T18:47:55.207Z,27.15
2018-08-19T18:50:24.419Z,27.13
2018-08-19T18:52:53.259Z,27.14
2018-08-19T18:55:21.714Z,27.12
2018-08-19T18:57:50.879Z,27.12
2018-08-19T19:00:20.055Z,27.11
2018-08-19T19:02:52.626Z,27.10
2018-08-19T19:05:32.135Z,27.09
2018-08-19T19:08:05.827Z,27.09
2018-08-19T19:10:34.245Z,27.09
2018-08-19T19:13:02.758Z,27.07
2018-08-19T19:15:34.011Z,27.08
2018-08-19T19:18:02.326Z,27.06
2018-08-19T19:20:30.631Z,27.06
2018-08-19T19:23:02.387Z,27.06
2018-08-19T19:25:35.858Z,27.05
2018-08-19T19:28:04.303Z,27.04
2018-08-19T19:30:32.606Z,27.04
2018-08-19T19:33:05.090Z,27.02
2018-08-19T19:35:33.363Z,27.02
2018-08-19T19:38:01.658Z,27.01
2018-08-19T19:40:29.930Z,27.01
2018-08-19T19:42:58.354Z,27.01
2018-08-19T19:45:26.650Z,26.99
2018-08-19T19:47:55.007Z,26.99
2018-08-19T19:50:23.391Z,26.98
2018-08-19T19:52:56.938Z,26.97
2018-08-19T19:55:25.242Z,26.97
2018-08-19T19:57:53.586Z,26.96
2018-08-19T20:00:21.871Z,26.96
2018-08-19T20:02:50.335Z,26.95
2018-08-19T20:05:24.027Z,26.94
2018-08-19T20:07:52.650Z,26.94
2018-08-19T20:10:28.278Z,26.93
2018-08-19T20:12:56.694Z,26.93
2018-08-19T20:15:25.118Z,26.92
2018-08-19T20:17:53.395Z,26.91
2018-08-19T20:20:21.687Z,26.91
2018-08-19T20:22:50.008Z,26.90
2018-08-19T20:25:18.336Z,26.88
2018-08-19T20:27:48.171Z,26.88
2018-08-19T20:30:16.518Z,26.87
2018-08-19T20:32:44.839Z,26.86
2018-08-19T20:35:13.230Z,26.86
2018-08-19T20:37:41.621Z,26.85
2018-08-19T20:40:10.252Z,26.84
2018-08-19T20:42:38.590Z,26.84
2018-08-19T20:45:07.854Z,26.84
2018-08-19T20:47:36.282Z,26.84
2018-08-19T20:50:04.678Z,26.82
2018-08-19T20:52:45.832Z,26.82
2018-08-19T20:55:14.490Z,26.79
2018-08-19T20:57:43.038Z,26.80
2018-08-19T21:00:11.598Z,26.79
2018-08-19T21:02:39.922Z,26.78
2018-08-19T21:05:08.254Z,26.77
2018-08-19T21:07:36.604Z,26.77
2018-08-19T21:10:05.646Z,26.76
2018-08-19T21:12:33.918Z,26.75
2018-08-19T21:15:02.317Z,26.74
2018-08-19T21:17:31.934Z,26.73
2018-08-19T21:20:00.390Z,26.72
2018-08-19T21:22:28.632Z,26.72
2018-08-19T21:24:57.023Z,26.71
2018-08-19T21:27:25.453Z,26.70
2018-08-19T21:29:53.776Z,26.69
2018-08-19T21:32:22.303Z,26.69
2018-08-19T21:34:51.125Z,26.67
2018-08-19T21:37:34.415Z,26.66
2018-08-19T21:40:03.051Z,26.65
2018-08-19T21:42:54.807Z,26.65
2018-08-19T21:45:23.122Z,26.63
2018-08-19T21:47:52.126Z,26.62
2018-08-19T21:50:20.411Z,26.62
2018-08-19T21:53:10.876Z,26.61
2018-08-19T21:55:41.507Z,26.59
2018-08-19T21:58:09.978Z,26.59
2018-08-19T22:00:39.635Z,26.59
2018-08-19T22:03:15.702Z,26.57
2018-08-19T22:05:44.406Z,26.57
2018-08-19T22:08:12.850Z,26.55
2018-08-19T22:10:42.938Z,26.55
2018-08-19T22:13:11.418Z,26.55
2018-08-19T22:15:40.733Z,26.54
2018-08-19T22:18:10.900Z,26.53
2018-08-19T22:20:39.390Z,26.54
2018-08-19T22:23:07.887Z,26.52
2018-08-19T22:25:36.206Z,26.51
2018-08-19T22:28:04.558Z,26.51
2018-08-19T22:30:32.878Z,26.51
2018-08-19T22:33:01.223Z,26.50
2018-08-19T22:35:31.266Z,26.49
2018-08-19T22:38:02.998Z,26.48
2018-08-19T22:40:36.719Z,26.47
2018-08-19T22:43:05.738Z,26.47
2018-08-19T22:45:34.126Z,26.45
2018-08-19T22:48:02.491Z,26.45
2018-08-19T22:50:31.062Z,26.44
2018-08-19T22:52:59.510Z,26.44
2018-08-19T22:55:28.011Z,26.43
2018-08-19T22:58:01.534Z,26.42
2018-08-19T23:00:29.878Z,26.42
2018-08-19T23:02:58.262Z,26.41
2018-08-19T23:05:26.586Z,26.41
2018-08-19T23:07:55.719Z,26.41
2018-08-19T23:10:24.028Z,26.41
2018-08-19T23:12:52.350Z,26.38
2018-08-19T23:15:31.890Z,26.39
2018-08-19T23:18:00.302Z,26.38
2018-08-19T23:20:28.594Z,26.37
2018-08-19T23:22:57.027Z,26.37
2018-08-19T23:25:25.334Z,26.36
2018-08-19T23:27:53.714Z,26.34
2018-08-19T23:30:22.039Z,26.35
2018-08-19T23:32:50.367Z,26.34
2018-08-19T23:35:18.672Z,26.34
2018-08-19T23:37:47.004Z,26.32
2018-08-19T23:40:15.378Z,26.33
2018-08-19T23:42:43.710Z,26.32
2018-08-19T23:45:12.017Z,26.31
2018-08-19T23:47:40.278Z,26.31
2018-08-19T23:50:08.630Z,26.31
2018-08-19T23:52:36.905Z,26.30
2018-08-19T23:55:05.241Z,26.30
2018-08-19T23:57:33.523Z,26.29
